Time;durP1;ratioP1;P1;durP2;ratioP2;P2;SDS_P1;SDS_P2;PMS_P1;PMS_P2;Temp;Humidity;BMP_temperature;BMP_pressure;BME280_temperature;BME280_humidity;BME280_pressure;Samples;Min_cycle;Max_cycle;Signal;HPM_P1;HPM_P2
2023/05/09 00:01:59;;;;;;;1.20;1.02;;;13.20;99.90;;;;;;5032192;28;20052;-47
2023/05/09 00:04:25;;;;;;;0.90;0.90;;;13.30;99.90;;;;;;5058708;28;20042;-49
2023/05/09 00:06:51;;;;;;;2.17;1.23;;;13.30;99.90;;;;;;5053814;28;20129;-49
2023/05/09 00:09:16;;;;;;;1.85;1.25;;;13.40;99.90;;;;;;5033913;28;20112;-54
2023/05/09 00:11:42;;;;;;;1.10;1.00;;;13.40;99.90;;;;;;5035018;28;20025;-55
2023/05/09 00:14:11;;;;;;;2.13;1.13;;;13.50;99.90;;;;;;5029817;28;20136;-47
2023/05/09 00:16:37;;;;;;;1.10;0.93;;;13.50;99.90;;;;;;5033139;28;20061;-58
2023/05/09 00:19:03;;;;;;;2.17;1.30;;;13.50;99.90;;;;;;5033844;28;20117;-48
2023/05/09 00:21:29;;;;;;;1.63;1.08;;;13.50;99.90;;;;;;5033282;28;20056;-57
2023/05/09 00:23:55;;;;;;;2.45;1.58;;;13.30;99.90;;;;;;4997477;28;20042;-57
2023/05/09 00:26:22;;;;;;;1.10;0.98;;;13.10;99.90;;;;;;5034425;28;20032;-51
2023/05/09 00:28:48;;;;;;;1.98;1.10;;;13.10;99.90;;;;;;5033475;28;20087;-55
2023/05/09 00:31:14;;;;;;;1.50;1.08;;;13.20;99.90;;;;;;5033595;28;20022;-54
2023/05/09 00:33:39;;;;;;;1.50;1.10;;;13.10;99.90;;;;;;5033406;28;20038;-52
2023/05/09 00:36:05;;;;;;;2.08;1.23;;;13.20;99.90;;;;;;5032111;28;20029;-50
2023/05/09 00:38:31;;;;;;;1.73;1.15;;;13.20;99.90;;;;;;5041514;28;20429;-57
2023/05/09 00:40:57;;;;;;;2.13;1.48;;;13.20;99.90;;;;;;5033800;28;20045;-57
2023/05/09 00:43:23;;;;;;;1.70;0.95;;;;;;;;;;5033557;28;20036;-51
2023/05/09 00:45:49;;;;;;;1.27;0.88;;;12.40;99.90;;;;;;5034027;28;20084;-52
2023/05/09 00:48:15;;;;;;;2.10;1.25;;;12.20;99.90;;;;;;5033272;28;20489;-51
2023/05/09 00:50:41;;;;;;;1.65;1.10;;;12.20;99.90;;;;;;5033131;28;20477;-57
2023/05/09 00:53:08;;;;;;;1.60;1.17;;;12.20;99.90;;;;;;5033817;28;20042;-45
2023/05/09 00:55:34;;;;;;;1.88;1.13;;;12.50;99.90;;;;;;5027838;28;20543;-52
2023/05/09 00:58:01;;;;;;;2.38;1.30;;;12.70;99.90;;;;;;5033235;28;20038;-49
2023/05/09 01:00:27;;;;;;;1.42;1.20;;;12.60;99.90;;;;;;5033232;28;20041;-54
2023/05/09 01:02:54;;;;;;;1.27;1.08;;;12.40;99.90;;;;;;5024239;28;20485;-53
2023/05/09 01:05:24;;;;;;;2.13;1.48;;;12.60;99.90;;;;;;5032982;28;20487;-47
2023/05/09 01:08:21;;;;;;;1.58;1.20;;;12.60;99.90;;;;;;5033521;28;20032;-49
2023/05/09 01:10:53;;;;;;;1.90;1.30;;;12.70;99.90;;;;;;5027241;28;20045;-51
2023/05/09 01:13:30;;;;;;;2.13;1.50;;;12.80;99.90;;;;;;5031615;28;20034;-48
2023/05/09 01:16:00;;;;;;;1.48;1.10;;;12.80;99.90;;;;;;5031495;28;20500;-53
2023/05/09 01:18:34;;;;;;;1.23;1.13;;;12.80;99.90;;;;;;5032788;28;20022;-50
2023/05/09 01:21:09;;;;;;;2.33;1.10;;;12.70;99.90;;;;;;5026717;28;20651;-53
2023/05/09 01:23:43;;;;;;;1.33;1.10;;;12.80;99.90;;;;;;5033385;28;20029;-49
2023/05/09 01:26:45;;;;;;;1.63;1.20;;;12.80;99.90;;;;;;5032954;28;20032;-60
2023/05/09 01:29:36;;;;;;;2.10;1.15;;;12.90;99.90;;;;;;5011186;28;20050;-46
2023/05/09 01:32:07;;;;;;;1.40;1.00;;;12.90;99.90;;;;;;5029627;28;20127;-51
2023/05/09 01:34:35;;;;;;;2.40;1.63;;;12.40;99.90;;;;;;4996699;28;20061;-58
2023/05/09 01:37:04;;;;;;;1.58;1.10;;;12.20;99.90;;;;;;5020982;28;20045;-53
2023/05/09 01:39:33;;;;;;;2.10;1.40;;;12.00;99.90;;;;;;5011794;28;20504;-59
2023/05/09 01:42:02;;;;;;;1.60;1.30;;;12.00;99.90;;;;;;5018354;28;20048;-51
2023/05/09 01:44:34;;;;;;;3.13;1.48;;;12.10;99.90;;;;;;5019602;28;20041;-51
2023/05/09 01:47:02;;;;;;;1.05;0.82;;;12.20;99.90;;;;;;5023577;28;20131;-50
2023/05/09 01:49:31;;;;;;;1.50;1.23;;;12.30;99.90;;;;;;5015934;28;20038;-53
2023/05/09 01:51:58;;;;;;;1.77;1.30;;;12.50;99.90;;;;;;5017315;28;20103;-55
2023/05/09 01:54:26;;;;;;;2.55;1.38;;;12.50;99.90;;;;;;4991814;28;20108;-55
2023/05/09 01:56:54;;;;;;;2.85;1.35;;;12.60;99.90;;;;;;5016650;28;20033;-47
2023/05/09 01:59:21;;;;;;;2.83;1.55;;;12.60;99.90;;;;;;5010736;28;20042;-48
2023/05/09 02:01:48;;;;;;;2.38;1.50;;;12.60;99.90;;;;;;5017048;28;20030;-56
2023/05/09 02:04:16;;;;;;;1.75;1.40;;;12.70;99.90;;;;;;5016413;28;20038;-59
2023/05/09 02:06:43;;;;;;;1.15;1.05;;;12.60;99.90;;;;;;5025568;28;20030;-54
2023/05/09 02:09:10;;;;;;;1.90;1.50;;;12.60;99.90;;;;;;5029312;28;20029;-54
2023/05/09 02:11:36;;;;;;;2.67;1.38;;;12.60;99.90;;;;;;5026821;28;20029;-51
2023/05/09 02:14:01;;;;;;;2.65;1.42;;;12.60;99.90;;;;;;5032193;28;20055;-52
2023/05/09 02:16:28;;;;;;;1.88;1.23;;;12.60;99.90;;;;;;5032534;28;20477;-54
2023/05/09 02:18:54;;;;;;;2.70;1.55;;;12.60;99.90;;;;;;5026511;28;20470;-54
2023/05/09 02:21:20;;;;;;;1.90;1.42;;;12.60;99.90;;;;;;5033034;28;20044;-45
2023/05/09 02:23:46;;;;;;;3.15;1.65;;;12.70;99.90;;;;;;5002358;28;20041;-52
2023/05/09 02:26:12;;;;;;;3.08;1.25;;;12.60;99.90;;;;;;5032196;28;20037;-53
2023/05/09 02:28:40;;;;;;;4.05;1.73;;;12.70;99.90;;;;;;5032108;28;20070;-53
2023/05/09 02:31:07;;;;;;;1.13;1.02;;;12.50;99.90;;;;;;5031830;28;20088;-49
2023/05/09 02:33:35;;;;;;;1.88;1.30;;;12.50;99.90;;;;;;5032079;28;20080;-53
2023/05/09 02:36:02;;;;;;;2.85;1.60;;;12.60;99.90;;;;;;5032600;28;20052;-56
2023/05/09 02:38:27;;;;;;;1.77;1.40;;;12.50;99.90;;;;;;5031782;28;20452;-58
2023/05/09 02:40:53;;;;;;;2.53;1.50;;;12.50;99.90;;;;;;5031823;28;20025;-54
2023/05/09 02:43:19;;;;;;;4.10;1.10;;;12.40;99.90;;;;;;5032600;28;20040;-52
2023/05/09 02:45:44;;;;;;;3.72;1.60;;;12.40;99.90;;;;;;5030802;28;20037;-56
2023/05/09 02:48:10;;;;;;;2.55;1.25;;;12.40;99.90;;;;;;5038388;28;20401;-54
2023/05/09 02:50:41;;;;;;;6.45;1.92;;;12.40;99.90;;;;;;5030394;28;20440;-55
2023/05/09 02:53:07;;;;;;;1.40;1.13;;;12.40;99.90;;;;;;5031707;28;20053;-51
2023/05/09 02:55:33;;;;;;;1.80;1.15;;;12.30;99.90;;;;;;5031652;28;20028;-49
2023/05/09 02:57:58;;;;;;;4.45;1.75;;;12.30;99.90;;;;;;5013754;28;20037;-50
2023/05/09 03:00:24;;;;;;;9.63;2.13;;;12.30;99.90;;;;;;5031365;28;20060;-47
2023/05/09 03:02:51;;;;;;;3.00;1.63;;;12.30;99.90;;;;;;5031574;28;20044;-55
2023/05/09 03:05:17;;;;;;;3.38;1.65;;;12.30;99.90;;;;;;5029275;28;20033;-54
2023/05/09 03:07:43;;;;;;;3.85;1.33;;;12.20;99.90;;;;;;5031549;28;20116;-47
2023/05/09 03:10:12;;;;;;;2.05;1.45;;;12.10;99.90;;;;;;5031936;28;20025;-50
2023/05/09 03:12:38;;;;;;;2.35;1.40;;;12.10;99.90;;;;;;5018999;28;20107;-52
2023/05/09 03:15:07;;;;;;;4.57;1.48;;;12.20;99.90;;;;;;5026001;28;20033;-58
2023/05/09 03:17:33;;;;;;;2.83;1.42;;;12.10;99.90;;;;;;4968787;28;20049;-58
2023/05/09 03:19:59;;;;;;;3.70;1.67;;;12.20;99.90;;;;;;5035553;28;20033;-51
2023/05/09 03:22:25;;;;;;;2.63;1.40;;;12.20;99.90;;;;;;5033710;28;20098;-52
2023/05/09 03:24:50;;;;;;;2.10;1.50;;;12.20;99.90;;;;;;5034953;28;20032;-53
2023/05/09 03:27:16;;;;;;;1.80;1.58;;;12.20;99.90;;;;;;5032994;28;20036;-54
2023/05/09 03:29:42;;;;;;;3.50;1.52;;;12.10;99.90;;;;;;5035121;28;20071;-54
2023/05/09 03:32:08;;;;;;;1.75;1.38;;;12.20;99.90;;;;;;5035008;28;20041;-56
2023/05/09 03:34:33;;;;;;;26.08;12.07;;;12.20;99.90;;;;;;5034889;28;20030;-54
2023/05/09 03:36:59;;;;;;;5.70;3.60;;;12.20;99.90;;;;;;5033579;28;20030;-48
2023/05/09 03:39:25;;;;;;;3.70;2.22;;;12.20;99.90;;;;;;5038047;28;20401;-53
2023/05/09 03:41:51;;;;;;;2.25;1.55;;;12.20;99.90;;;;;;5034359;28;20017;-51
2023/05/09 03:44:16;;;;;;;2.15;1.60;;;12.20;99.90;;;;;;5033347;28;20366;-55
2023/05/09 03:46:42;;;;;;;3.03;2.00;;;12.30;99.90;;;;;;5030319;28;20033;-59
2023/05/09 03:49:08;;;;;;;2.85;2.13;;;12.20;99.90;;;;;;5041997;28;20182;-54
2023/05/09 03:51:34;;;;;;;3.13;1.50;;;11.90;99.90;;;;;;5048125;28;20115;-49
2023/05/09 03:53:59;;;;;;;3.55;1.85;;;11.80;99.90;;;;;;5034574;28;20029;-48
2023/05/09 03:56:26;;;;;;;2.97;1.58;;;;;;;;;;5034291;28;20473;-51
2023/05/09 03:58:51;;;;;;;1.60;1.30;;;12.20;99.90;;;;;;5034923;28;20025;-55
2023/05/09 04:01:17;;;;;;;2.35;1.55;;;12.20;99.90;;;;;;5019064;28;20095;-56
2023/05/09 04:03:43;;;;;;;3.63;1.67;;;12.20;99.90;;;;;;5048646;28;20047;-56
2023/05/09 04:06:09;;;;;;;3.40;1.98;;;12.30;99.90;;;;;;4999183;28;20063;-57
2023/05/09 04:08:35;;;;;;;3.28;1.95;;;12.30;99.90;;;;;;5032624;28;20037;-49
2023/05/09 04:11:01;;;;;;;3.00;1.70;;;12.20;99.90;;;;;;5033833;28;20044;-56
2023/05/09 04:13:28;;;;;;;3.05;1.90;;;12.30;99.90;;;;;;5034057;28;20120;-51
2023/05/09 04:15:54;;;;;;;4.32;1.80;;;12.30;99.90;;;;;;5031244;28;20030;-56
2023/05/09 04:18:21;;;;;;;3.33;1.50;;;;;;;;;;5034885;28;20139;-49
2023/05/09 04:20:47;;;;;;;2.95;1.58;;;12.60;99.90;;;;;;5047841;28;20056;-57
2023/05/09 04:23:13;;;;;;;2.47;1.80;;;12.60;99.90;;;;;;5033589;28;20025;-54
2023/05/09 04:25:38;;;;;;;2.25;1.63;;;12.70;99.90;;;;;;5031657;28;20034;-52
2023/05/09 04:28:04;;;;;;;5.05;2.60;;;12.80;99.90;;;;;;5033250;28;20051;-54
2023/05/09 04:30:30;;;;;;;4.65;2.60;;;12.80;99.90;;;;;;5032916;28;20044;-48
2023/05/09 04:32:56;;;;;;;2.03;1.60;;;12.80;99.90;;;;;;5031380;28;20041;-53
2023/05/09 04:35:22;;;;;;;3.63;1.80;;;12.70;99.90;;;;;;5032806;28;20105;-56
2023/05/09 04:37:47;;;;;;;1.67;1.50;;;12.70;99.90;;;;;;5014686;28;20140;-53
2023/05/09 04:40:13;;;;;;;3.10;1.98;;;12.70;99.90;;;;;;5031548;28;20052;-49
2023/05/09 04:42:40;;;;;;;2.13;1.65;;;12.80;99.90;;;;;;5032030;28;20029;-53
2023/05/09 04:45:06;;;;;;;4.18;2.15;;;12.70;99.90;;;;;;5018926;28;20041;-54
2023/05/09 04:47:32;;;;;;;2.03;1.80;;;12.60;99.90;;;;;;5028414;28;20055;-53
2023/05/09 04:49:57;;;;;;;3.38;1.77;;;12.70;99.90;;;;;;5022578;28;20120;-49
2023/05/09 04:52:23;;;;;;;2.50;1.60;;;12.70;99.90;;;;;;5023727;28;20397;-51
2023/05/09 04:54:49;;;;;;;2.22;1.60;;;12.60;99.90;;;;;;5033432;28;20065;-50
2023/05/09 04:57:15;;;;;;;2.95;1.90;;;12.60;99.90;;;;;;5032007;28;20037;-48
2023/05/09 04:59:41;;;;;;;3.10;1.70;;;12.60;99.90;;;;;;5045928;28;20041;-53
2023/05/09 05:02:07;;;;;;;3.60;1.63;;;12.70;99.90;;;;;;5033891;28;20039;-52
2023/05/09 05:04:32;;;;;;;5.10;1.67;;;12.80;99.90;;;;;;5029437;28;20449;-50
2023/05/09 05:06:58;;;;;;;2.20;1.52;;;12.90;99.90;;;;;;5033081;28;20029;-49
2023/05/09 05:09:24;;;;;;;2.33;1.75;;;12.90;99.90;;;;;;5032875;28;20504;-44
2023/05/09 05:11:50;;;;;;;2.25;1.60;;;12.80;99.90;;;;;;5044943;28;20041;-49
2023/05/09 05:14:15;;;;;;;2.03;1.33;;;12.80;99.90;;;;;;5021517;28;20068;-53
2023/05/09 05:16:41;;;;;;;1.98;1.45;;;13.00;99.90;;;;;;5031535;28;20055;-49
2023/05/09 05:19:07;;;;;;;2.28;1.67;;;12.90;99.90;;;;;;5033662;28;20025;-50
2023/05/09 05:21:32;;;;;;;2.22;1.52;;;12.80;99.90;;;;;;5032598;28;20128;-51
2023/05/09 05:23:58;;;;;;;2.97;1.70;;;12.70;99.90;;;;;;5048529;28;20496;-49
2023/05/09 05:26:24;;;;;;;2.00;1.50;;;;;;;;;;5032534;28;20033;-48
2023/05/09 05:28:54;;;;;;;1.55;1.38;;;13.40;99.90;;;;;;5031181;28;20040;-48
2023/05/09 05:31:20;;;;;;;2.05;1.60;;;13.40;99.90;;;;;;5028625;28;20038;-52
2023/05/09 05:33:46;;;;;;;2.85;1.90;;;13.60;99.90;;;;;;5031712;28;20073;-47
2023/05/09 05:36:12;;;;;;;2.88;1.55;;;13.40;99.90;;;;;;5031289;28;20100;-50
2023/05/09 05:38:37;;;;;;;1.75;1.50;;;13.50;99.90;;;;;;5025011;28;20474;-48
2023/05/09 05:41:03;;;;;;;3.72;1.50;;;13.70;99.90;;;;;;5032756;28;20025;-50
2023/05/09 05:43:29;;;;;;;2.00;1.33;;;13.60;99.90;;;;;;5032327;28;20095;-48
2023/05/09 05:45:55;;;;;;;1.85;1.40;;;13.30;99.90;;;;;;5032977;28;20420;-49
2023/05/09 05:48:20;;;;;;;3.55;1.70;;;13.50;99.90;;;;;;5032973;28;20029;-52
2023/05/09 05:50:46;;;;;;;1.67;1.45;;;13.60;99.90;;;;;;5045732;28;20041;-46
2023/05/09 05:53:12;;;;;;;2.17;1.50;;;13.50;99.90;;;;;;5018028;28;20041;-48
2023/05/09 05:55:38;;;;;;;1.90;1.27;;;13.50;99.90;;;;;;5031900;28;20045;-48
2023/05/09 05:58:04;;;;;;;2.92;1.63;;;13.30;99.90;;;;;;5032095;28;20029;-51
2023/05/09 06:00:29;;;;;;;2.40;1.83;;;13.10;99.90;;;;;;5032769;28;20021;-46
2023/05/09 06:02:55;;;;;;;1.65;1.52;;;13.40;99.90;;;;;;5032561;28;20541;-52
2023/05/09 06:05:21;;;;;;;1.75;1.52;;;;;;;;;;5023178;28;20037;-51
2023/05/09 06:07:47;;;;;;;3.00;1.35;;;;;;;;;;5013768;28;20068;-48
2023/05/09 06:10:14;;;;;;;2.97;1.90;;;13.80;99.90;;;;;;5031560;28;20116;-47
2023/05/09 06:12:40;;;;;;;2.20;1.35;;;14.00;99.90;;;;;;5030700;28;20038;-48
2023/05/09 06:15:06;;;;;;;2.30;1.40;;;13.60;99.90;;;;;;5032288;28;20067;-53
2023/05/09 06:17:33;;;;;;;1.80;1.42;;;13.90;99.90;;;;;;5023424;28;20113;-51
2023/05/09 06:19:58;;;;;;;2.78;1.58;;;14.10;99.90;;;;;;5061426;28;20044;-50
2023/05/09 06:22:24;;;;;;;2.05;1.50;;;14.20;99.90;;;;;;5032676;28;20429;-48
2023/05/09 06:24:50;;;;;;;1.67;1.25;;;14.50;99.90;;;;;;5029099;28;20034;-49
2023/05/09 06:27:16;;;;;;;1.60;1.48;;;14.60;99.90;;;;;;5031790;28;20033;-47
2023/05/09 06:29:42;;;;;;;1.33;1.23;;;;;;;;;;5038943;28;20042;-45
2023/05/09 06:32:07;;;;;;;2.15;1.38;;;15.30;99.90;;;;;;5044539;28;20382;-47
2023/05/09 06:34:33;;;;;;;1.95;1.33;;;15.30;99.90;;;;;;5030403;28;20052;-51
2023/05/09 06:36:59;;;;;;;1.63;1.20;;;15.00;99.90;;;;;;5032272;28;20364;-49
2023/05/09 06:39:24;;;;;;;3.38;1.80;;;15.10;99.90;;;;;;5032213;28;20048;-48
2023/05/09 06:41:50;;;;;;;2.08;1.55;;;15.30;99.90;;;;;;5031881;28;20030;-51
2023/05/09 06:44:16;;;;;;;2.05;1.65;;;15.20;99.90;;;;;;5027081;28;20022;-50
2023/05/09 06:46:41;;;;;;;1.60;1.48;;;15.00;99.90;;;;;;5021886;28;20398;-47
2023/05/09 06:49:07;;;;;;;2.25;1.38;;;15.60;99.90;;;;;;5033422;28;20489;-49
2023/05/09 06:51:33;;;;;;;3.83;1.40;;;15.40;99.90;;;;;;5031220;28;20080;-49
2023/05/09 06:53:59;;;;;;;4.97;2.67;;;15.50;99.90;;;;;;5033093;28;20041;-52
2023/05/09 06:56:25;;;;;;;2.70;1.80;;;15.70;99.90;;;;;;5035425;28;20029;-48
2023/05/09 06:58:51;;;;;;;11.98;3.50;;;15.50;99.90;;;;;;5035466;28;20032;-50
2023/05/09 07:01:16;;;;;;;21.27;6.20;;;15.60;99.90;;;;;;5035496;28;20033;-48
2023/05/09 07:03:42;;;;;;;3.55;2.03;;;15.70;99.90;;;;;;5040478;28;20037;-49
2023/05/09 07:06:08;;;;;;;10.35;3.90;;;15.50;99.90;;;;;;5035517;28;20041;-47
2023/05/09 07:08:34;;;;;;;4.32;2.50;;;15.90;99.90;;;;;;5035507;28;20484;-47
2023/05/09 07:11:00;;;;;;;5.18;1.50;;;16.30;99.90;;;;;;5034735;28;20030;-52
2023/05/09 07:13:25;;;;;;;1.75;1.42;;;16.60;99.90;;;;;;5026800;28;20152;-50
2023/05/09 07:15:51;;;;;;;3.15;1.75;;;16.90;99.90;;;;;;5021025;28;20038;-48
2023/05/09 07:18:17;;;;;;;2.58;2.05;;;17.00;99.90;;;;;;5015539;28;20254;-51
2023/05/09 07:20:42;;;;;;;2.90;1.38;;;17.30;99.90;;;;;;5029116;28;20027;-50
2023/05/09 07:23:08;;;;;;;2.30;1.67;;;17.30;99.90;;;;;;5035042;28;20021;-47
2023/05/09 07:25:34;;;;;;;2.42;1.70;;;17.30;99.90;;;;;;5001793;28;20034;-50
2023/05/09 07:28:00;;;;;;;3.05;1.80;;;17.40;99.90;;;;;;5034833;28;20033;-47
2023/05/09 07:30:25;;;;;;;2.00;1.58;;;17.60;99.90;;;;;;5034490;28;20535;-48
2023/05/09 07:32:51;;;;;;;3.53;2.50;;;17.50;99.90;;;;;;5028805;28;20132;-47
2023/05/09 07:35:18;;;;;;;3.10;1.92;;;17.20;99.90;;;;;;5035472;28;20034;-48
2023/05/09 07:37:43;;;;;;;2.40;1.90;;;17.50;99.90;;;;;;5034562;28;20481;-48
2023/05/09 07:40:10;;;;;;;2.88;1.60;;;;;;;;;;5034722;28;20063;-51
2023/05/09 07:42:36;;;;;;;6.05;2.72;;;18.00;99.90;;;;;;5027346;28;20053;-45
2023/05/09 07:45:04;;;;;;;3.08;1.60;;;18.40;99.90;;;;;;5035632;28;20064;-45
2023/05/09 07:47:31;;;;;;;4.10;2.00;;;18.30;99.90;;;;;;5034205;28;20065;-53
2023/05/09 07:49:57;;;;;;;14.77;4.88;;;17.90;99.90;;;;;;5034833;28;20100;-52
2023/05/09 07:52:23;;;;;;;68.70;14.43;;;;;;;;;;5044830;28;20053;-50
2023/05/09 07:54:48;;;;;;;2.97;2.47;;;18.50;99.90;;;;;;5033366;28;20045;-49
2023/05/09 07:57:15;;;;;;;5.70;2.28;;;18.40;99.90;;;;;;5030837;28;20120;-48
2023/05/09 07:59:41;;;;;;;2.72;1.80;;;18.40;99.90;;;;;;5031965;28;20055;-51
2023/05/09 08:02:07;;;;;;;4.00;2.30;;;18.20;99.90;;;;;;5034875;28;20380;-48
2023/05/09 08:04:36;;;;;;;4.43;1.85;;;17.80;99.90;;;;;;5026646;28;20038;-47
2023/05/09 08:07:02;;;;;;;2.05;1.75;;;18.40;99.90;;;;;;5031902;28;20037;-49
2023/05/09 08:09:28;;;;;;;3.35;2.50;;;18.50;99.90;;;;;;5034225;28;20061;-48
2023/05/09 08:11:54;;;;;;;3.50;2.33;;;18.80;99.90;;;;;;5034048;28;20061;-53
2023/05/09 08:14:20;;;;;;;1.77;1.40;;;;;;;;;;5032483;28;20037;-51
2023/05/09 08:16:46;;;;;;;3.60;1.90;;;19.20;99.90;;;;;;5033752;28;20036;-47
2023/05/09 08:19:12;;;;;;;2.45;1.80;;;19.20;99.90;;;;;;5032768;28;20393;-47
2023/05/09 08:21:37;;;;;;;2.60;1.88;;;19.30;99.90;;;;;;5033918;28;20078;-55
2023/05/09 08:24:06;;;;;;;2.78;2.28;;;19.20;99.90;;;;;;5032034;28;20045;-52
2023/05/09 08:26:33;;;;;;;3.58;2.08;;;18.60;99.90;;;;;;5033303;28;20496;-48
2023/05/09 08:28:59;;;;;;;4.15;2.35;;;19.20;99.90;;;;;;5031938;28;20033;-50
2023/05/09 08:31:26;;;;;;;4.03;2.30;;;;;;;;;;5013944;28;20398;-50
2023/05/09 08:33:52;;;;;;;3.90;2.30;;;19.70;99.90;;;;;;5033801;28;20505;-48
2023/05/09 08:36:17;;;;;;;3.80;2.10;;;19.80;99.90;;;;;;5033924;28;20025;-50
2023/05/09 08:38:43;;;;;;;3.33;2.17;;;20.00;99.90;;;;;;5026304;28;20050;-50
2023/05/09 08:41:09;;;;;;;3.75;2.53;;;20.20;99.90;;;;;;5033860;28;20029;-49
2023/05/09 08:43:36;;;;;;;3.95;2.03;;;20.20;99.90;;;;;;5035020;28;20092;-48
2023/05/09 08:46:07;;;;;;;3.35;2.22;;;;;;;;;;5030223;28;20462;-49
2023/05/09 08:48:37;;;;;;;3.05;2.15;;;20.50;99.90;;;;;;5031439;28;20033;-51
2023/05/09 08:51:04;;;;;;;3.33;2.08;;;20.20;99.90;;;;;;5010906;28;20140;-51
2023/05/09 08:53:30;;;;;;;4.35;2.80;;;20.30;99.90;;;;;;5019126;28;20509;-47
2023/05/09 08:55:58;;;;;;;2.92;2.28;;;;;;;;;;5032912;28;20064;-50
2023/05/09 08:58:24;;;;;;;4.25;2.53;;;20.50;99.90;;;;;;5032592;28;20034;-48
2023/05/09 09:00:51;;;;;;;5.85;2.28;;;;;;;;;;5024016;28;20133;-48
2023/05/09 09:03:17;;;;;;;4.28;2.25;;;;;;;;;;5033313;28;20552;-52
2023/05/09 09:05:45;;;;;;;3.45;2.20;;;21.50;99.90;;;;;;5030792;28;20064;-49
2023/05/09 09:08:12;;;;;;;3.70;2.50;;;20.70;99.90;;;;;;5029311;28;20043;-52
2023/05/09 09:10:41;;;;;;;3.28;1.90;;;21.30;99.90;;;;;;5004349;28;20046;-49
2023/05/09 09:13:08;;;;;;;4.07;2.25;;;21.80;99.90;;;;;;5032161;28;20478;-49
2023/05/09 09:15:36;;;;;;;3.03;2.03;;;21.80;99.90;;;;;;5027859;28;20032;-51
2023/05/09 09:18:08;;;;;;;3.33;2.15;;;21.80;99.90;;;;;;5032867;28;20470;-51
2023/05/09 09:20:36;;;;;;;4.22;2.30;;;;;;;;;;5033017;28;20167;-51
2023/05/09 09:23:04;;;;;;;4.90;2.35;;;22.30;98.70;;;;;;5056038;28;20095;-51
2023/05/09 09:25:30;;;;;;;3.67;2.45;;;22.70;99.90;;;;;;5053714;28;20122;-51
2023/05/09 09:27:56;;;;;;;5.18;2.58;;;;;;;;;;5031038;28;20528;-49
2023/05/09 09:30:26;;;;;;;3.22;1.98;;;22.40;99.10;;;;;;5030140;28;20037;-51
2023/05/09 09:32:52;;;;;;;3.53;1.95;;;22.30;98.10;;;;;;5028853;28;20377;-49
2023/05/09 09:35:19;;;;;;;3.20;1.90;;;22.60;99.70;;;;;;4999118;28;20044;-49
2023/05/09 09:37:45;;;;;;;3.13;2.03;;;;;;;;;;5032966;28;20037;-48
2023/05/09 09:40:13;;;;;;;3.10;2.08;;;;;;;;;;5032443;28;20374;-49
2023/05/09 09:42:45;;;;;;;2.70;1.90;;;22.30;98.60;;;;;;5032661;28;20060;-47
2023/05/09 09:45:16;;;;;;;2.97;2.25;;;22.60;97.60;;;;;;5032707;28;20037;-50
2023/05/09 09:47:43;;;;;;;3.10;2.05;;;22.90;97.30;;;;;;5031267;28;20120;-49
2023/05/09 09:50:17;;;;;;;5.03;2.20;;;22.70;97.50;;;;;;5030557;28;20042;-50
2023/05/09 09:52:52;;;;;;;1.88;1.42;;;22.00;97.30;;;;;;5014358;28;20048;-51
2023/05/09 09:55:19;;;;;;;3.88;2.10;;;21.70;97.90;;;;;;5032573;28;20168;-50
2023/05/09 09:57:47;;;;;;;2.63;1.80;;;22.30;98.40;;;;;;4997826;28;20052;-51
2023/05/09 10:00:14;;;;;;;7.85;2.50;;;;;;;;;;5032190;28;20469;-48
2023/05/09 10:02:48;;;;;;;3.28;2.20;;;23.10;98.30;;;;;;5032527;28;20033;-50
2023/05/09 10:05:25;;;;;;;2.78;1.90;;;22.20;97.50;;;;;;5032494;28;20083;-54
2023/05/09 10:08:01;;;;;;;2.33;1.92;;;22.20;97.60;;;;;;5032167;28;20116;-51
2023/05/09 10:10:28;;;;;;;2.97;1.98;;;22.20;98.00;;;;;;5030689;28;20120;-52
2023/05/09 10:12:57;;;;;;;2.60;1.83;;;22.00;97.80;;;;;;5032578;28;20504;-49
2023/05/09 10:15:24;;;;;;;3.22;1.75;;;22.30;97.90;;;;;;5032202;28;20043;-50
2023/05/09 10:17:56;;;;;;;2.55;1.70;;;22.10;97.00;;;;;;5032349;28;20029;-48
2023/05/09 10:20:22;;;;;;;;;;;22.10;97.20;;;;;;5032407;28;20061;-50
2023/05/09 10:22:49;;;;;;;3.60;1.95;;;22.20;97.90;;;;;;5014383;28;19909;-49
2023/05/09 10:25:20;;;;;;;3.47;1.90;;;22.20;97.00;;;;;;5035748;28;20481;-52
2023/05/09 10:27:48;;;;;;;1.73;1.60;;;22.00;96.80;;;;;;5035826;28;20037;-51
2023/05/09 10:30:19;;;;;;;2.97;1.70;;;21.70;97.20;;;;;;5033959;28;20069;-50
2023/05/09 10:32:48;;;;;;;2.83;1.35;;;21.40;97.70;;;;;;5036794;28;20398;-51
2023/05/09 10:35:16;;;;;;;2.22;1.58;;;21.40;97.90;;;;;;5036342;28;20048;-51
2023/05/09 10:37:44;;;;;;;2.40;1.60;;;21.80;98.20;;;;;;5034899;28;20495;-48
2023/05/09 10:40:13;;;;;;;2.28;1.45;;;21.90;97.60;;;;;;5034866;28;20440;-49
2023/05/09 10:42:44;;;;;;;3.00;1.70;;;21.70;97.20;;;;;;5033896;28;20067;-48
2023/05/09 10:45:11;;;;;;;2.05;1.73;;;22.10;98.00;;;;;;5035849;28;20029;-51
2023/05/09 10:47:38;;;;;;;2.92;1.63;;;21.70;96.50;;;;;;5036386;28;20485;-54
2023/05/09 10:50:09;;;;;;;2.03;1.60;;;22.30;97.90;;;;;;5036103;28;20029;-49
2023/05/09 10:53:07;;;;;;;2.60;1.65;;;22.60;97.30;;;;;;5036339;28;20037;-51
2023/05/09 10:56:00;;;;;;;1.95;1.50;;;22.20;97.00;;;;;;5036134;28;20030;-49
2023/05/09 10:58:35;;;;;;;4.20;2.03;;;22.30;97.40;;;;;;5031622;28;20033;-51
2023/05/09 11:01:03;;;;;;;3.13;1.67;;;22.70;97.10;;;;;;5048316;28;20050;-52
2023/05/09 11:03:53;;;;;;;3.85;1.80;;;22.60;96.50;;;;;;5016813;28;20041;-49
2023/05/09 11:06:38;;;;;;;2.58;2.05;;;;;;;;;;5047872;28;20053;-52
2023/05/09 11:09:32;;;;;;;4.13;1.80;;;23.50;96.60;;;;;;5032268;28;20033;-48
2023/05/09 11:12:04;;;;;;;2.88;1.60;;;;;;;;;;5034798;28;20029;-51
2023/05/09 11:14:29;;;;;;;;;;;23.90;98.10;;;;;;5035374;28;20098;-48
2023/05/09 11:17:06;;;;;;;1.25;1.15;;;23.80;98.00;;;;;;5031784;28;20495;-51
2023/05/09 11:19:59;;;;;;;2.65;1.67;;;23.00;96.80;;;;;;5035064;28;20409;-49
2023/05/09 11:22:31;;;;;;;2.88;1.92;;;23.20;97.00;;;;;;5032261;28;20527;-50
2023/05/09 11:25:03;;;;;;;;;;;23.20;97.00;;;;;;5028794;28;20057;-47
2023/05/09 11:27:38;;;;;;;;;;;23.50;97.30;;;;;;5035096;28;19909;-53
2023/05/09 11:30:06;;;;;;;1.75;1.35;;;23.70;97.30;;;;;;5029813;28;19925;-52
2023/05/09 11:32:34;;;;;;;1.15;1.05;;;;;;;;;;5012693;28;20106;-50
2023/05/09 11:35:20;;;;;;;2.65;1.90;;;23.90;92.80;;;;;;5034820;28;21028;-51
2023/05/09 11:37:50;;;;;;;1.77;1.42;;;;;;;;;;5032221;28;20038;-50
2023/05/09 11:40:20;;;;;;;3.53;1.70;;;;;;;;;;5029991;28;20057;-54
2023/05/09 11:42:54;;;;;;;2.63;1.80;;;22.90;99.90;;;;;;5032201;28;20033;-53
2023/05/09 11:45:27;;;;;;;2.40;1.50;;;22.50;99.90;;;;;;5030704;28;20504;-53
2023/05/09 11:47:53;;;;;;;1.45;1.27;;;23.00;97.70;;;;;;5034001;28;20094;-51
2023/05/09 11:50:20;;;;;;;1.85;1.20;;;23.10;99.90;;;;;;4983898;28;20033;-49
2023/05/09 11:52:47;;;;;;;0.88;0.88;;;;;;;;;;5013270;28;20056;-53
2023/05/09 11:55:14;;;;;;;1.55;1.23;;;;;;;;;;5017350;28;20068;-50
2023/05/09 11:57:41;;;;;;;1.60;1.15;;;;;;;;;;5020309;28;20537;-51
2023/05/09 12:00:09;;;;;;;0.85;0.70;;;;;;;;;;5011741;28;20176;-51
2023/05/09 12:02:35;;;;;;;0.60;0.60;;;;;;;;;;5020295;28;20021;-52
2023/05/09 12:05:11;;;;;;;0.82;0.77;;;;;;;;;;5016502;28;20030;-52
2023/05/09 12:07:41;;;;;;;0.65;0.65;;;;;;;;;;4979801;28;20044;-51
2023/05/09 12:10:07;;;;;;;0.52;0.52;;;;;;;;;;5014437;28;20089;-51
2023/05/09 12:12:35;;;;;;;1.38;0.75;;;;;;;;;;5014720;28;20045;-50
2023/05/09 12:15:08;;;;;;;1.30;0.70;;;24.90;89.00;;;;;;5019890;28;20037;-51
2023/05/09 12:17:34;;;;;;;0.82;0.70;;;24.80;87.00;;;;;;4997948;28;20046;-50
2023/05/09 12:20:03;;;;;;;1.38;0.88;;;24.20;86.50;;;;;;5020767;28;20481;-51
2023/05/09 12:22:29;;;;;;;1.08;0.80;;;;;;;;;;5032157;28;20037;-49
2023/05/09 12:24:55;;;;;;;1.25;1.00;;;24.60;90.90;;;;;;5034509;28;20394;-50
2023/05/09 12:27:22;;;;;;;0.80;0.80;;;23.40;87.20;;;;;;5034053;28;20025;-50
2023/05/09 12:29:48;;;;;;;1.02;0.90;;;22.90;89.40;;;;;;5034527;28;20040;-51
2023/05/09 12:32:15;;;;;;;1.73;1.13;;;23.60;88.80;;;;;;5033960;28;20033;-50
2023/05/09 12:34:44;;;;;;;1.40;1.08;;;24.30;92.50;;;;;;5033898;28;20113;-50
2023/05/09 12:37:18;;;;;;;0.98;0.88;;;;;;;;;;5020689;28;20045;-50
2023/05/09 12:40:02;;;;;;;0.82;0.80;;;23.60;88.40;;;;;;5042575;28;20386;-50
2023/05/09 12:42:33;;;;;;;1.73;1.23;;;23.20;85.30;;;;;;5033403;28;20056;-50
2023/05/09 12:45:01;;;;;;;1.25;1.15;;;23.10;93.90;;;;;;5032785;28;20041;-51
2023/05/09 12:47:28;;;;;;;1.42;1.08;;;22.90;88.20;;;;;;4991981;28;20022;-51
2023/05/09 12:50:01;;;;;;;3.33;1.08;;;;;;;;;;4985447;28;20042;-50
2023/05/09 12:52:41;;;;;;;0.60;0.60;;;23.80;95.60;;;;;;4989863;28;20105;-50
2023/05/09 12:55:08;;;;;;;2.95;1.48;;;;;;;;;;4989689;28;20564;-51
2023/05/09 12:57:34;;;;;;;1.67;1.10;;;21.70;89.40;;;;;;4950861;28;20472;-50
2023/05/09 13:00:03;;;;;;;1.42;1.02;;;21.60;90.10;;;;;;4953943;28;20042;-50
2023/05/09 13:02:38;;;;;;;1.33;1.23;;;;;;;;;;4953316;28;20041;-50
2023/05/09 13:05:17;;;;;;;1.48;1.20;;;;;;;;;;4952815;28;20038;-50